Time;durP1;ratioP1;P1;durP2;ratioP2;P2;SDS_P1;SDS_P2;PMS_P1;PMS_P2;Temp;Humidity;BMP_temperature;BMP_pressure;BME280_temperature;BME280_humidity;BME280_pressure;Samples;Min_cycle;Max_cycle;Signal;HPM_P1;HPM_P2
2022/10/25 00:00:07;;;;;;;18.48;12.52;;;15.40;99.90;;;;;;5071959;28;20227;-89
2022/10/25 00:02:59;;;;;;;22.73;12.65;;;15.40;99.90;;;;;;5070216;28;20216;-89
2022/10/25 00:05:47;;;;;;;21.67;13.20;;;15.50;99.90;;;;;;5055617;28;20231;-80
2022/10/25 00:08:38;;;;;;;21.48;12.98;;;15.40;99.90;;;;;;5064826;28;20216;-81
2022/10/25 00:11:29;;;;;;;19.73;12.73;;;15.40;99.90;;;;;;5066930;28;20250;-81
2022/10/25 00:14:19;;;;;;;19.85;11.48;;;15.40;99.90;;;;;;5070443;28;20303;-81
2022/10/25 00:17:08;;;;;;;18.50;11.65;;;15.50;99.90;;;;;;5050820;28;20232;-82
2022/10/25 00:19:56;;;;;;;18.38;12.10;;;15.40;99.90;;;;;;5062551;28;20224;-82
2022/10/25 00:22:45;;;;;;;16.27;11.60;;;15.40;99.90;;;;;;5062370;28;20303;-82
2022/10/25 00:25:36;;;;;;;16.60;11.38;;;15.40;99.90;;;;;;5063689;28;20333;-82
2022/10/25 00:28:24;;;;;;;20.27;11.10;;;15.40;99.90;;;;;;5064198;28;20216;-84
2022/10/25 00:31:15;;;;;;;18.83;10.85;;;15.40;99.90;;;;;;5066793;28;20220;-84
2022/10/25 00:34:04;;;;;;;20.40;11.13;;;15.40;99.90;;;;;;5059264;28;20220;-84
2022/10/25 00:36:53;;;;;;;17.58;10.98;;;15.40;99.90;;;;;;5063318;28;20228;-83
2022/10/25 00:39:41;;;;;;;17.95;10.50;;;15.40;99.90;;;;;;5066820;28;20239;-84
2022/10/25 00:42:31;;;;;;;19.52;10.73;;;15.40;99.90;;;;;;5057089;28;20301;-84
2022/10/25 00:45:22;;;;;;;16.23;10.10;;;15.40;99.90;;;;;;5051258;28;20296;-84
2022/10/25 00:48:11;;;;;;;16.95;10.65;;;15.40;99.90;;;;;;5053474;28;20231;-87
2022/10/25 00:51:00;;;;;;;14.60;10.25;;;15.40;99.90;;;;;;5074401;28;20223;-87
2022/10/25 00:53:50;;;;;;;17.67;10.07;;;15.40;99.90;;;;;;5058909;28;20227;-85
2022/10/25 00:56:45;;;;;;;19.08;10.70;;;15.40;99.90;;;;;;5068769;28;20226;-87
2022/10/25 00:59:36;;;;;;;17.10;10.20;;;15.40;99.90;;;;;;5066139;28;20220;-85
2022/10/25 01:02:24;;;;;;;17.48;10.68;;;15.40;99.90;;;;;;5054675;28;20224;-85
2022/10/25 01:05:13;;;;;;;15.07;9.98;;;15.40;99.90;;;;;;5065804;28;20307;-84
2022/10/25 01:08:02;;;;;;;16.52;9.95;;;15.40;99.90;;;;;;5058472;28;20225;-84
2022/10/25 01:10:51;;;;;;;16.08;10.27;;;15.40;99.90;;;;;;5051561;28;20216;-85
2022/10/25 01:13:40;;;;;;;14.63;10.00;;;15.40;99.90;;;;;;5071821;28;20231;-83
2022/10/25 01:16:36;;;;;;;15.80;10.02;;;15.40;99.90;;;;;;5066394;28;20310;-82
2022/10/25 01:19:39;;;;;;;18.15;10.25;;;15.40;99.90;;;;;;5061234;28;20228;-80
2022/10/25 01:22:31;;;;;;;18.73;11.20;;;15.30;99.90;;;;;;5047089;28;20259;-80
2022/10/25 01:25:53;;;;;;;16.13;11.20;;;15.30;99.90;;;;;;5065672;28;20464;-78
2022/10/25 01:28:59;;;;;;;13.60;10.35;;;15.20;99.90;;;;;;5062781;28;20711;-81
2022/10/25 01:31:57;;;;;;;17.92;11.35;;;15.30;99.90;;;;;;5050668;28;20253;-80
2022/10/25 01:34:50;;;;;;;19.33;11.32;;;15.30;99.90;;;;;;5057965;28;20337;-81
2022/10/25 01:37:45;;;;;;;18.67;11.30;;;15.30;99.90;;;;;;5057203;28;20954;-81
2022/10/25 01:40:42;;;;;;;14.60;10.60;;;15.20;99.90;;;;;;5066931;28;20294;-79
2022/10/25 01:43:40;;;;;;;13.60;10.38;;;15.20;99.90;;;;;;5061532;28;20227;-80
2022/10/25 01:46:36;;;;;;;16.00;10.43;;;15.20;99.90;;;;;;5058400;28;20215;-80
2022/10/25 01:49:43;;;;;;;16.20;10.98;;;15.20;99.90;;;;;;5062308;28;20238;-78
2022/10/25 01:52:32;;;;;;;18.02;11.48;;;15.20;99.90;;;;;;5075186;28;20318;-81
2022/10/25 01:55:23;;;;;;;17.40;11.10;;;15.20;99.90;;;;;;5070423;28;20225;-80
2022/10/25 01:58:21;;;;;;;18.70;11.70;;;15.20;99.90;;;;;;5071814;28;20223;-83
2022/10/25 02:01:21;;;;;;;19.05;11.20;;;15.20;99.90;;;;;;5057708;28;20255;-83
2022/10/25 02:04:19;;;;;;;20.25;11.98;;;15.20;99.90;;;;;;5061250;28;20250;-83
2022/10/25 02:07:15;;;;;;;19.90;11.90;;;15.10;99.90;;;;;;5075912;28;20261;-82
2022/10/25 02:10:07;;;;;;;21.38;12.10;;;15.10;99.90;;;;;;5068146;28;20222;-80
2022/10/25 02:13:01;;;;;;;16.58;12.00;;;15.20;99.90;;;;;;5069172;28;20781;-81
2022/10/25 02:15:58;;;;;;;19.33;11.55;;;15.10;99.90;;;;;;5071165;28;20227;-79
2022/10/25 02:18:51;;;;;;;18.65;11.65;;;15.10;99.90;;;;;;5067569;28;20225;-82
2022/10/25 02:21:42;;;;;;;14.15;11.40;;;15.10;99.90;;;;;;5053992;28;20228;-81
2022/10/25 02:24:33;;;;;;;15.43;11.32;;;15.10;99.90;;;;;;5070807;28;20211;-80
2022/10/25 02:27:23;;;;;;;19.60;11.48;;;15.10;99.90;;;;;;5074067;28;20234;-80
2022/10/25 02:30:12;;;;;;;20.83;12.48;;;15.10;99.90;;;;;;5057458;28;20727;-80
2022/10/25 02:33:02;;;;;;;19.00;12.02;;;15.10;99.90;;;;;;5066206;28;20224;-82
2022/10/25 02:36:06;;;;;;;21.50;11.50;;;15.10;99.90;;;;;;5050642;28;20256;-82
2022/10/25 02:38:56;;;;;;;19.23;12.70;;;15.20;99.90;;;;;;5050468;28;20227;-81
2022/10/25 02:41:46;;;;;;;18.55;13.10;;;15.20;99.90;;;;;;5052863;28;20983;-82
2022/10/25 02:44:34;;;;;;;16.58;11.45;;;15.10;99.90;;;;;;5064677;28;20698;-81
2022/10/25 02:47:23;;;;;;;18.48;11.48;;;15.20;99.90;;;;;;5065834;28;20231;-81
2022/10/25 02:50:12;;;;;;;17.38;12.20;;;15.10;99.90;;;;;;5065101;28;20235;-81
2022/10/25 02:53:00;;;;;;;16.83;11.32;;;15.10;99.90;;;;;;5065897;28;20359;-80
2022/10/25 02:55:58;;;;;;;17.60;12.20;;;15.10;99.90;;;;;;5064363;28;20733;-79
2022/10/25 02:58:50;;;;;;;16.48;11.88;;;15.10;99.90;;;;;;5053680;28;20370;-79
2022/10/25 03:01:39;;;;;;;20.38;12.52;;;15.20;99.90;;;;;;5065642;28;20259;-80
2022/10/25 03:04:28;;;;;;;20.02;12.90;;;15.20;99.90;;;;;;5066191;28;20275;-80
2022/10/25 03:07:16;;;;;;;16.65;12.27;;;15.20;99.90;;;;;;5057421;28;20232;-82
2022/10/25 03:10:06;;;;;;;19.25;11.63;;;15.10;99.90;;;;;;5064841;28;20221;-82
2022/10/25 03:12:55;;;;;;;17.25;12.15;;;15.10;99.90;;;;;;5043954;28;20236;-82
2022/10/25 03:15:45;;;;;;;24.05;12.32;;;15.10;99.90;;;;;;5049559;28;20217;-81
2022/10/25 03:18:34;;;;;;;17.02;12.52;;;15.10;99.90;;;;;;5057311;28;20225;-84
2022/10/25 03:21:23;;;;;;;16.58;12.52;;;15.10;99.90;;;;;;5059869;28;20223;-86
2022/10/25 03:24:12;;;;;;;17.83;12.18;;;15.00;99.90;;;;;;5060152;28;20221;-86
2022/10/25 03:27:01;;;;;;;17.58;12.70;;;15.00;99.90;;;;;;5064151;28;20232;-80
2022/10/25 03:29:49;;;;;;;20.25;11.95;;;14.90;99.90;;;;;;5075974;28;20220;-88
2022/10/25 03:32:39;;;;;;;20.75;12.85;;;15.00;99.90;;;;;;5070577;28;20224;-87
2022/10/25 03:35:28;;;;;;;19.55;13.45;;;15.10;99.90;;;;;;5072815;28;20858;-87
2022/10/25 03:38:17;;;;;;;16.45;12.40;;;15.10;99.90;;;;;;5083711;28;20247;-87
2022/10/25 03:41:06;;;;;;;20.52;13.68;;;15.00;99.90;;;;;;5079191;28;20819;-86
2022/10/25 03:43:55;;;;;;;20.52;13.50;;;15.00;99.90;;;;;;5064604;28;20224;-82
2022/10/25 03:46:43;;;;;;;20.63;13.70;;;15.00;99.90;;;;;;5071766;28;20211;-77
2022/10/25 03:49:33;;;;;;;21.52;13.77;;;15.00;99.90;;;;;;5062640;28;20738;-78
2022/10/25 03:52:22;;;;;;;22.02;14.43;;;15.00;99.90;;;;;;5070000;28;20232;-76
2022/10/25 03:55:11;;;;;;;19.08;14.05;;;15.00;99.90;;;;;;5053565;28;20273;-77
2022/10/25 03:58:00;;;;;;;19.08;14.52;;;14.90;99.90;;;;;;5061502;28;20231;-77
2022/10/25 04:00:48;;;;;;;22.27;14.50;;;14.90;99.90;;;;;;5056095;28;20238;-79
2022/10/25 04:03:37;;;;;;;20.95;13.82;;;14.90;99.90;;;;;;5048877;28;20343;-79
2022/10/25 04:06:27;;;;;;;20.08;14.57;;;14.90;99.90;;;;;;5059512;28;20234;-81
2022/10/25 04:09:16;;;;;;;25.48;14.88;;;14.90;99.90;;;;;;5065754;28;20718;-78
2022/10/25 04:12:05;;;;;;;22.98;15.05;;;14.90;99.90;;;;;;5074182;28;20238;-78
2022/10/25 04:14:54;;;;;;;22.77;14.65;;;14.90;99.90;;;;;;5063050;28;20232;-81
2022/10/25 04:17:42;;;;;;;20.02;14.45;;;14.90;99.90;;;;;;5051490;28;20247;-78
2022/10/25 04:20:31;;;;;;;20.33;14.95;;;15.00;99.90;;;;;;5068659;28;20227;-77
2022/10/25 04:23:21;;;;;;;24.58;14.13;;;14.90;99.90;;;;;;5067508;28;20377;-78
2022/10/25 04:26:13;;;;;;;21.67;14.50;;;14.90;99.90;;;;;;5062816;28;20224;-78
2022/10/25 04:29:02;;;;;;;19.80;14.45;;;14.90;99.90;;;;;;5053475;28;20216;-79
2022/10/25 04:31:50;;;;;;;21.38;14.57;;;14.90;99.90;;;;;;5056206;28;20220;-79
2022/10/25 04:34:39;;;;;;;19.88;14.80;;;15.00;99.90;;;;;;5066409;28;20224;-80
2022/10/25 04:37:28;;;;;;;19.77;15.07;;;14.90;99.90;;;;;;5060462;28;20514;-81
2022/10/25 04:40:18;;;;;;;22.92;15.50;;;14.90;99.90;;;;;;5058612;28;20228;-78
2022/10/25 04:43:12;;;;;;;20.30;14.68;;;15.00;99.90;;;;;;5068252;28;20332;-79
2022/10/25 04:46:01;;;;;;;19.98;15.05;;;15.00;99.90;;;;;;5053395;28;20227;-79
2022/10/25 04:48:50;;;;;;;22.73;15.23;;;14.90;99.90;;;;;;5060164;28;20220;-78
2022/10/25 04:51:39;;;;;;;20.80;15.05;;;14.80;99.90;;;;;;5050190;28;20224;-78
2022/10/25 04:54:28;;;;;;;25.25;15.68;;;14.80;99.90;;;;;;5065123;28;20228;-77
2022/10/25 04:57:18;;;;;;;21.35;14.77;;;14.90;99.90;;;;;;5048567;28;20224;-78
2022/10/25 05:00:07;;;;;;;22.92;14.57;;;14.80;99.90;;;;;;5062795;28;20225;-78
2022/10/25 05:02:56;;;;;;;23.08;15.77;;;14.80;99.90;;;;;;5066481;28;20238;-78
2022/10/25 05:05:45;;;;;;;24.15;16.45;;;14.80;99.90;;;;;;5050265;28;20256;-76
2022/10/25 05:08:34;;;;;;;23.92;17.02;;;14.70;99.90;;;;;;5051656;28;20347;-80
2022/10/25 05:11:24;;;;;;;22.25;16.48;;;14.70;99.90;;;;;;5047093;28;20242;-80
2022/10/25 05:14:18;;;;;;;21.90;16.15;;;14.70;99.90;;;;;;5056239;28;20220;-81
2022/10/25 05:17:07;;;;;;;31.38;17.35;;;14.60;99.90;;;;;;5070906;28;20223;-81
2022/10/25 05:19:55;;;;;;;26.00;17.00;;;14.70;99.90;;;;;;5033980;28;20236;-80
2022/10/25 05:22:44;;;;;;;25.63;17.88;;;14.70;99.90;;;;;;5069411;28;20252;-81
2022/10/25 05:25:33;;;;;;;25.40;17.42;;;14.70;99.90;;;;;;5064724;28;20247;-83
2022/10/25 05:28:22;;;;;;;23.88;16.70;;;14.70;99.90;;;;;;5063480;28;20224;-82
2022/10/25 05:31:15;;;;;;;24.45;17.45;;;14.60;99.90;;;;;;5072955;28;20227;-82
2022/10/25 05:34:03;;;;;;;20.80;16.67;;;14.60;99.90;;;;;;5049571;28;20258;-82
2022/10/25 05:36:52;;;;;;;23.67;17.52;;;14.60;99.90;;;;;;5064306;28;20220;-82
2022/10/25 05:39:41;;;;;;;27.23;18.02;;;14.60;99.90;;;;;;5064819;28;20220;-79
2022/10/25 05:42:30;;;;;;;24.42;17.88;;;14.60;99.90;;;;;;5063571;28;20220;-79
2022/10/25 05:45:18;;;;;;;23.30;17.77;;;14.50;99.90;;;;;;5046257;28;20228;-80
2022/10/25 05:48:08;;;;;;;25.70;17.88;;;14.50;99.90;;;;;;5048647;28;20227;-77
2022/10/25 05:51:08;;;;;;;29.75;18.48;;;14.50;99.90;;;;;;5062509;28;20232;-77
2022/10/25 05:54:17;;;;;;;23.90;18.95;;;14.50;99.90;;;;;;5052623;28;21001;-81
2022/10/25 05:57:05;;;;;;;28.40;18.50;;;14.60;99.90;;;;;;5041246;28;20235;-76
2022/10/25 05:59:54;;;;;;;27.35;19.75;;;14.70;99.90;;;;;;5047242;28;20223;-76
2022/10/25 06:02:43;;;;;;;27.55;19.27;;;14.60;99.90;;;;;;5065456;28;20227;-76
2022/10/25 06:05:34;;;;;;;26.05;18.98;;;14.50;99.90;;;;;;5066304;28;20276;-78
2022/10/25 06:08:23;;;;;;;27.92;19.13;;;14.50;99.90;;;;;;5054942;28;20227;-78
2022/10/25 06:11:14;;;;;;;23.70;18.90;;;14.50;99.90;;;;;;5051345;28;20568;-76
2022/10/25 06:14:03;;;;;;;26.67;19.60;;;14.50;99.90;;;;;;5059782;28;20567;-77
2022/10/25 06:16:52;;;;;;;26.67;18.67;;;14.50;99.90;;;;;;5069241;28;20235;-75
2022/10/25 06:19:40;;;;;;;27.92;19.50;;;14.50;99.90;;;;;;5055886;28;20244;-77
2022/10/25 06:22:31;;;;;;;28.55;19.25;;;14.40;99.90;;;;;;5047144;28;20236;-76
2022/10/25 06:25:20;;;;;;;26.63;19.90;;;14.50;99.90;;;;;;5057952;28;20228;-77
2022/10/25 06:28:09;;;;;;;27.20;18.23;;;14.50;99.90;;;;;;5057548;28;20301;-77
2022/10/25 06:31:01;;;;;;;23.38;18.02;;;14.50;99.90;;;;;;5065091;28;20652;-76
2022/10/25 06:33:50;;;;;;;26.35;18.80;;;14.50;99.90;;;;;;5054318;28;20224;-76
2022/10/25 06:36:39;;;;;;;23.88;18.45;;;14.50;99.90;;;;;;5068591;28;20243;-76
2022/10/25 06:39:29;;;;;;;28.02;19.17;;;14.50;99.90;;;;;;5066340;28;20239;-76
2022/10/25 06:42:18;;;;;;;24.65;18.42;;;14.50;99.90;;;;;;5060944;28;20239;-75
2022/10/25 06:45:07;;;;;;;26.02;17.58;;;14.50;99.90;;;;;;5069525;28;20638;-76
2022/10/25 06:47:56;;;;;;;25.02;18.70;;;14.50;99.90;;;;;;5070528;28;20235;-77
2022/10/25 06:50:44;;;;;;;26.50;18.23;;;14.50;99.90;;;;;;5068917;28;21090;-77
2022/10/25 06:53:39;;;;;;;24.20;18.48;;;14.60;99.90;;;;;;5064140;28;20216;-76
2022/10/25 06:56:29;;;;;;;25.50;18.77;;;14.60;99.90;;;;;;5063816;28;20216;-77
2022/10/25 06:59:19;;;;;;;26.45;18.25;;;14.60;99.90;;;;;;5057805;28;20230;-76
2022/10/25 07:02:09;;;;;;;32.65;18.80;;;14.60;99.90;;;;;;5062854;28;20240;-76
2022/10/25 07:04:58;;;;;;;20.25;16.85;;;14.70;99.90;;;;;;5064330;28;20623;-76
2022/10/25 07:07:47;;;;;;;23.98;18.15;;;14.70;99.90;;;;;;5064592;28;20232;-76
2022/10/25 07:10:36;;;;;;;24.83;17.63;;;14.70;99.90;;;;;;5059392;28;20219;-77
2022/10/25 07:13:26;;;;;;;25.58;16.52;;;14.70;99.90;;;;;;5066655;28;20311;-75
2022/10/25 07:16:16;;;;;;;24.33;17.02;;;14.80;99.90;;;;;;5055478;28;20227;-76
2022/10/25 07:19:05;;;;;;;26.25;16.80;;;14.90;99.90;;;;;;5075348;28;20314;-75
2022/10/25 07:21:54;;;;;;;24.73;17.65;;;15.00;99.90;;;;;;5062858;28;20224;-77
2022/10/25 07:24:43;;;;;;;22.20;16.17;;;15.10;99.90;;;;;;5067928;28;20228;-74
2022/10/25 07:27:32;;;;;;;20.40;17.08;;;15.20;99.90;;;;;;5062034;28;20569;-74
2022/10/25 07:30:23;;;;;;;23.50;15.95;;;15.20;99.90;;;;;;5074440;28;20603;-76
2022/10/25 07:33:12;;;;;;;22.52;15.90;;;15.30;99.90;;;;;;5069346;28;20778;-76
2022/10/25 07:36:01;;;;;;;26.95;15.80;;;15.40;99.90;;;;;;5052999;28;20224;-76
2022/10/25 07:39:00;;;;;;;19.05;15.35;;;15.40;99.90;;;;;;5052596;28;20242;-77
2022/10/25 07:41:49;;;;;;;20.15;15.45;;;15.40;99.90;;;;;;5061751;28;20228;-76
2022/10/25 07:44:39;;;;;;;30.45;18.35;;;15.40;99.90;;;;;;5047660;28;20216;-77
2022/10/25 07:47:29;;;;;;;23.38;15.13;;;15.50;99.90;;;;;;5064763;28;20240;-76
2022/10/25 07:50:19;;;;;;;17.80;14.73;;;15.50;99.90;;;;;;5055343;28;20310;-75
2022/10/25 07:53:07;;;;;;;21.13;13.60;;;15.50;99.90;;;;;;5062226;28;20899;-78
2022/10/25 07:55:56;;;;;;;17.25;12.88;;;15.70;99.90;;;;;;5063869;28;20565;-76
2022/10/25 07:58:45;;;;;;;17.63;14.00;;;15.70;99.90;;;;;;5064628;28;20216;-77
2022/10/25 08:01:33;;;;;;;17.48;13.15;;;15.80;99.90;;;;;;5061901;28;20610;-76
2022/10/25 08:04:24;;;;;;;19.92;13.15;;;15.80;99.90;;;;;;5063083;28;20301;-75
2022/10/25 08:07:13;;;;;;;23.40;13.20;;;15.80;99.90;;;;;;5068094;28;20224;-77
2022/10/25 08:10:02;;;;;;;18.77;14.05;;;15.80;99.90;;;;;;5052623;28;20231;-77
2022/10/25 08:12:51;;;;;;;20.25;13.57;;;15.80;99.90;;;;;;5052152;28;20238;-77
2022/10/25 08:15:41;;;;;;;17.98;13.88;;;15.90;99.90;;;;;;5064850;28;20212;-77
2022/10/25 08:18:30;;;;;;;21.27;14.45;;;15.90;99.90;;;;;;5067987;28;20235;-76
2022/10/25 08:21:20;;;;;;;24.02;14.13;;;16.00;99.90;;;;;;5065298;28;20228;-76
2022/10/25 08:24:08;;;;;;;19.67;14.00;;;16.10;99.90;;;;;;5055636;28;20307;-77
2022/10/25 08:26:57;;;;;;;16.80;13.60;;;16.30;99.90;;;;;;5063050;28;20228;-77
2022/10/25 08:29:46;;;;;;;22.20;14.05;;;16.40;99.90;;;;;;5065885;28;20247;-77
2022/10/25 08:32:37;;;;;;;18.95;13.90;;;16.40;99.90;;;;;;5046569;28;20301;-79
2022/10/25 08:35:26;;;;;;;19.45;14.63;;;16.60;99.90;;;;;;5063509;28;20258;-77
2022/10/25 08:38:16;;;;;;;19.92;14.80;;;16.50;99.90;;;;;;5063021;28;20698;-75
2022/10/25 08:41:13;;;;;;;19.05;14.68;;;16.40;99.90;;;;;;5050644;28;20227;-76
2022/10/25 08:44:25;;;;;;;21.05;15.65;;;16.30;99.90;;;;;;5050704;28;20690;-76
2022/10/25 08:47:18;;;;;;;19.92;15.73;;;16.20;99.90;;;;;;5047722;28;20795;-76
2022/10/25 08:50:14;;;;;;;20.65;15.57;;;16.20;99.90;;;;;;5067372;28;20227;-76
2022/10/25 08:53:06;;;;;;;20.90;15.50;;;16.10;99.90;;;;;;5066480;28;20247;-75
2022/10/25 08:55:58;;;;;;;27.60;15.25;;;16.10;99.90;;;;;;5048398;28;20220;-75
2022/10/25 08:59:05;;;;;;;22.13;14.82;;;16.10;99.90;;;;;;5057762;28;20224;-76
2022/10/25 09:01:58;;;;;;;20.73;15.15;;;16.10;99.90;;;;;;5057038;28;20272;-76
2022/10/25 09:04:47;;;;;;;23.20;14.95;;;16.20;99.90;;;;;;5063313;28;20240;-75
2022/10/25 09:07:59;;;;;;;21.02;15.32;;;16.20;99.90;;;;;;5057342;28;20227;-76
2022/10/25 09:10:59;;;;;;;23.13;15.18;;;16.30;99.90;;;;;;5066705;28;20246;-76
2022/10/25 09:13:54;;;;;;;20.25;14.93;;;16.40;99.90;;;;;;5063252;28;20262;-77
2022/10/25 09:16:50;;;;;;;20.60;15.38;;;16.60;99.90;;;;;;5045105;28;20247;-77
2022/10/25 09:19:48;;;;;;;16.02;14.32;;;16.60;99.90;;;;;;5065912;28;20238;-78
2022/10/25 09:22:45;;;;;;;17.45;13.77;;;16.60;99.90;;;;;;5048928;28;20220;-77
2022/10/25 09:25:43;;;;;;;16.48;13.50;;;16.70;99.90;;;;;;5063094;28;20216;-78
2022/10/25 09:28:50;;;;;;;17.98;12.60;;;16.90;99.90;;;;;;5062190;28;20224;-76
2022/10/25 09:31:45;;;;;;;15.65;11.07;;;16.90;99.90;;;;;;5055837;28;20822;-75
2022/10/25 09:34:35;;;;;;;19.13;11.73;;;17.00;99.90;;;;;;5048182;28;20227;-76
2022/10/25 09:37:29;;;;;;;16.55;11.90;;;16.90;99.90;;;;;;5063164;28;20212;-77
2022/10/25 09:40:22;;;;;;;19.30;11.50;;;16.80;99.90;;;;;;5061980;28;20232;-78
2022/10/25 09:43:16;;;;;;;16.15;11.48;;;16.80;99.90;;;;;;5061943;28;20232;-77
2022/10/25 09:46:12;;;;;;;16.38;12.25;;;16.80;99.90;;;;;;5049428;28;20623;-77
2022/10/25 09:49:08;;;;;;;19.20;13.30;;;16.70;99.90;;;;;;5051376;28;20737;-77
2022/10/25 09:52:03;;;;;;;18.77;12.70;;;16.70;99.90;;;;;;5065504;28;20219;-77
2022/10/25 09:54:55;;;;;;;19.48;12.77;;;16.80;99.90;;;;;;5058368;28;20561;-78
2022/10/25 09:57:45;;;;;;;17.55;13.07;;;16.80;99.90;;;;;;5060059;28;20281;-77
2022/10/25 10:00:39;;;;;;;19.77;12.80;;;16.80;99.90;;;;;;5054440;28;20228;-77
2022/10/25 10:03:30;;;;;;;21.50;12.82;;;16.80;99.90;;;;;;5046526;28;20374;-77
2022/10/25 10:06:23;;;;;;;20.40;13.32;;;16.90;99.90;;;;;;5064182;28;20227;-77
2022/10/25 10:09:14;;;;;;;18.45;13.23;;;16.90;99.90;;;;;;5054212;28;20230;-77
2022/10/25 10:12:05;;;;;;;17.35;12.77;;;16.80;99.90;;;;;;5070066;28;20224;-76
2022/10/25 10:14:59;;;;;;;17.92;13.93;;;16.80;99.90;;;;;;5060831;28;20722;-77
2022/10/25 10:17:48;;;;;;;16.98;13.90;;;16.70;99.90;;;;;;5056078;28;20220;-77
2022/10/25 10:20:37;;;;;;;15.93;13.93;;;16.80;99.90;;;;;;5072296;28;20813;-78
2022/10/25 10:23:29;;;;;;;25.65;14.35;;;16.70;99.90;;;;;;5056318;28;20224;-78
2022/10/25 10:26:28;;;;;;;17.13;14.25;;;16.80;99.90;;;;;;5072687;28;20224;-77
2022/10/25 10:29:21;;;;;;;17.25;14.05;;;16.80;99.90;;;;;;5056558;28;20278;-76
2022/10/25 10:32:27;;;;;;;16.75;13.25;;;16.70;99.90;;;;;;5056663;28;20235;-77
2022/10/25 10:35:27;;;;;;;16.70;13.73;;;16.60;99.90;;;;;;5055813;28;20224;-77
2022/10/25 10:38:25;;;;;;;19.13;14.02;;;16.60;99.90;;;;;;5063781;28;20232;-78
2022/10/25 10:41:27;;;;;;;21.48;13.70;;;16.50;99.90;;;;;;5063179;28;20225;-77
2022/10/25 10:44:16;;;;;;;18.92;13.82;;;16.50;99.90;;;;;;5062284;28;20215;-77
2022/10/25 10:47:11;;;;;;;17.20;13.68;;;16.50;99.90;;;;;;5062561;28;20237;-77
2022/10/25 10:50:01;;;;;;;19.63;13.35;;;16.50;99.90;;;;;;5067003;28;20751;-78
2022/10/25 10:52:57;;;;;;;22.45;13.93;;;16.60;99.90;;;;;;5062162;28;20239;-78
2022/10/25 10:55:49;;;;;;;19.60;12.95;;;16.80;99.90;;;;;;5048425;28;20228;-77
2022/10/25 10:58:41;;;;;;;15.38;10.77;;;16.90;99.90;;;;;;5044373;28;20219;-76
2022/10/25 11:01:32;;;;;;;15.18;11.80;;;16.90;99.90;;;;;;5049246;28;20344;-78
2022/10/25 11:04:21;;;;;;;18.00;10.38;;;17.10;99.90;;;;;;5063447;28;20232;-76
2022/10/25 11:07:14;;;;;;;13.73;10.50;;;17.20;99.90;;;;;;5071360;28;20228;-77
2022/10/25 11:10:20;;;;;;;15.05;9.77;;;17.20;99.90;;;;;;5044590;28;20304;-77
2022/10/25 11:13:11;;;;;;;16.17;9.73;;;17.10;99.90;;;;;;5057658;28;20220;-76
2022/10/25 11:16:42;;;;;;;20.48;9.23;;;17.10;99.90;;;;;;5061966;28;20215;-78
2022/10/25 11:19:57;;;;;;;14.20;8.95;;;17.20;99.90;;;;;;5063060;28;20246;-77
2022/10/25 11:22:58;;;;;;;17.25;8.82;;;17.30;99.90;;;;;;5063366;28;20718;-77
2022/10/25 11:26:02;;;;;;;13.85;8.75;;;17.30;99.90;;;;;;5051657;28;20238;-75
2022/10/25 11:28:57;;;;;;;12.85;9.23;;;17.30;99.90;;;;;;5064484;28;20856;-77
2022/10/25 11:31:57;;;;;;;14.43;9.88;;;17.20;99.90;;;;;;5066068;28;20240;-77
2022/10/25 11:34:54;;;;;;;16.80;9.95;;;17.10;99.90;;;;;;5046267;28;20629;-75
2022/10/25 11:37:48;;;;;;;13.70;10.48;;;17.20;99.90;;;;;;5053434;28;20238;-76
2022/10/25 11:40:41;;;;;;;12.07;9.48;;;17.20;99.90;;;;;;5051661;28;20220;-76
2022/10/25 11:43:50;;;;;;;19.20;10.13;;;17.30;99.90;;;;;;5071922;28;22066;-77
2022/10/25 11:46:47;;;;;;;15.95;10.18;;;17.30;99.90;;;;;;5047180;28;20219;-78
2022/10/25 11:49:49;;;;;;;12.80;9.13;;;17.40;99.90;;;;;;5055872;28;20235;-76
2022/10/25 11:53:13;;;;;;;15.38;9.70;;;17.50;99.90;;;;;;5071981;28;20219;-77
2022/10/25 11:56:10;;;;;;;17.63;10.70;;;17.50;99.90;;;;;;5055558;28;20243;-77
2022/10/25 11:59:06;;;;;;;15.73;9.60;;;17.50;99.90;;;;;;5060468;28;20766;-77
2022/10/25 12:02:11;;;;;;;12.43;9.68;;;17.50;99.90;;;;;;5061967;28;20234;-78
2022/10/25 12:05:17;;;;;;;13.73;9.82;;;17.50;99.90;;;;;;5061172;28;20224;-79
2022/10/25 12:08:22;;;;;;;17.55;10.10;;;17.50;99.90;;;;;;5064763;28;20236;-78
2022/10/25 12:11:16;;;;;;;13.75;10.82;;;17.40;99.90;;;;;;5062890;28;20227;-77
2022/10/25 12:14:11;;;;;;;17.35;11.05;;;17.50;99.90;;;;;;5053848;28;20695;-77
2022/10/25 12:17:03;;;;;;;15.98;10.85;;;17.40;99.90;;;;;;5064429;28;20217;-76
2022/10/25 12:19:54;;;;;;;13.38;10.88;;;17.40;99.90;;;;;;5053987;28;20227;-78
2022/10/25 12:22:47;;;;;;;14.40;9.95;;;17.40;99.90;;;;;;5064492;28;20236;-76
2022/10/25 12:25:41;;;;;;;14.15;9.88;;;17.50;99.90;;;;;;5065974;28;20845;-76
2022/10/25 12:28:39;;;;;;;13.75;10.60;;;17.50;99.90;;;;;;5066381;28;20322;-77
2022/10/25 12:31:33;;;;;;;14.82;9.98;;;17.60;99.90;;;;;;5055748;28;20223;-79
2022/10/25 12:34:28;;;;;;;15.63;10.13;;;17.60;99.90;;;;;;5068348;28;20219;-79
2022/10/25 12:37:26;;;;;;;14.02;9.93;;;17.60;99.90;;;;;;5048063;28;20228;-80
2022/10/25 12:40:18;;;;;;;17.92;9.63;;;17.60;99.90;;;;;;5067509;28;20734;-80
2022/10/25 12:43:16;;;;;;;18.90;10.43;;;17.60;99.90;;;;;;5061016;28;20267;-81
2022/10/25 12:46:39;;;;;;;17.48;9.98;;;17.60;99.90;;;;;;5059872;28;20227;-79
2022/10/25 12:49:52;;;;;;;12.68;9.32;;;17.60;99.90;;;;;;5052186;28;20699;-79
2022/10/25 12:52:56;;;;;;;14.55;9.30;;;17.50;99.90;;;;;;5062242;28;20631;-81
2022/10/25 12:56:01;;;;;;;13.90;9.00;;;17.60;99.90;;;;;;5058109;28;20228;-80
2022/10/25 12:59:01;;;;;;;20.33;9.20;;;17.50;99.90;;;;;;5058150;28;20239;-80
2022/10/25 13:02:02;;;;;;;15.57;9.43;;;17.60;99.90;;;;;;5043455;28;20251;-80
2022/10/25 13:05:05;;;;;;;11.90;8.30;;;17.50;99.90;;;;;;5056241;28;20309;-78
2022/10/25 13:07:56;;;;;;;16.45;8.88;;;17.40;99.90;;;;;;5061297;28;20643;-79
2022/10/25 13:10:56;;;;;;;12.57;8.30;;;17.50;99.90;;;;;;5063127;28;20219;-79
2022/10/25 13:13:50;;;;;;;11.63;7.82;;;17.50;99.90;;;;;;5049663;28;20227;-79
2022/10/25 13:16:39;;;;;;;11.70;8.30;;;17.40;99.90;;;;;;5061132;28;20220;-81
2022/10/25 13:19:29;;;;;;;12.43;7.30;;;17.40;99.90;;;;;;5051720;28;20231;-79
2022/10/25 13:22:38;;;;;;;13.10;7.30;;;17.30;99.90;;;;;;5065465;28;20227;-80
2022/10/25 13:26:00;;;;;;;13.25;7.32;;;17.30;99.90;;;;;;5037252;28;20225;-79
2022/10/25 13:28:52;;;;;;;16.23;7.60;;;17.30;99.90;;;;;;5063035;28;20868;-78
2022/10/25 13:31:57;;;;;;;12.27;7.18;;;17.10;99.90;;;;;;5064247;28;20228;-80
2022/10/25 13:34:47;;;;;;;13.15;7.32;;;17.10;99.90;;;;;;5063649;28;20287;-79
2022/10/25 13:37:45;;;;;;;11.73;7.18;;;17.10;99.90;;;;;;5047980;28;20220;-80
2022/10/25 13:40:36;;;;;;;13.60;7.20;;;17.10;99.90;;;;;;5067942;28;20239;-80
2022/10/25 13:43:25;;;;;;;12.45;7.18;;;17.10;99.90;;;;;;5066408;28;20595;-80
2022/10/25 13:46:15;;;;;;;15.32;7.88;;;17.00;99.90;;;;;;5070782;28;20232;-80
2022/10/25 13:49:27;;;;;;;13.55;7.70;;;17.00;99.90;;;;;;5066162;28;20224;-81
2022/10/25 13:52:25;;;;;;;13.63;8.18;;;17.00;99.90;;;;;;5060574;28;20614;-80
2022/10/25 13:55:16;;;;;;;13.82;7.78;;;16.90;99.90;;;;;;5064667;28;20234;-79
2022/10/25 13:58:40;;;;;;;15.05;8.50;;;17.00;99.90;;;;;;5069540;28;20223;-79
2022/10/25 14:01:55;;;;;;;11.40;7.90;;;16.90;99.90;;;;;;5068693;28;20227;-79
2022/10/25 14:04:44;;;;;;;14.20;8.60;;;17.00;99.90;;;;;;5054444;28;20271;-79
2022/10/25 14:07:51;;;;;;;13.80;8.77;;;16.90;99.90;;;;;;5070552;28;20251;-79
2022/10/25 14:10:41;;;;;;;13.20;8.65;;;16.90;99.90;;;;;;5072333;28;20226;-79
2022/10/25 14:13:46;;;;;;;17.48;10.20;;;16.90;99.90;;;;;;5071731;28;20220;-79
2022/10/25 14:16:41;;;;;;;17.75;9.90;;;16.90;99.90;;;;;;5062617;28;20294;-79
2022/10/25 14:19:36;;;;;;;11.80;9.25;;;16.90;99.90;;;;;;5047961;28;20223;-78
2022/10/25 14:22:30;;;;;;;18.35;9.70;;;16.90;99.90;;;;;;5057852;28;20738;-78
2022/10/25 14:25:23;;;;;;;16.42;8.88;;;16.80;99.90;;;;;;5064202;28;20259;-78
2022/10/25 14:28:15;;;;;;;13.15;8.32;;;16.70;99.90;;;;;;5066070;28;20247;-79
2022/10/25 14:31:05;;;;;;;14.05;8.50;;;16.70;99.90;;;;;;5066636;28;20348;-78
2022/10/25 14:33:56;;;;;;;10.60;7.57;;;16.60;99.90;;;;;;5047527;28;20802;-81
2022/10/25 14:36:49;;;;;;;15.93;8.38;;;16.60;99.90;;;;;;5065191;28;20255;-76
2022/10/25 14:39:51;;;;;;;14.43;8.85;;;16.50;99.90;;;;;;5059587;28;20699;-81